Time;durP1;ratioP1;P1;durP2;ratioP2;P2;SDS_P1;SDS_P2;PMS_P1;PMS_P2;Temp;Humidity;BMP_temperature;BMP_pressure;BME280_temperature;BME280_humidity;BME280_pressure;Samples;Min_cycle;Max_cycle;Signal;HPM_P1;HPM_P2
2021/11/20 00:01:00;;;;;;;9.65;4.50;;;;;;;;;;5021212;28;20045;-56
2021/11/20 00:03:28;;;;;;;10.63;4.45;;;;;;;;;;5025522;28;20029;-54
2021/11/20 00:05:55;;;;;;;8.68;4.68;;;;;;;;;;5041464;28;20041;-53
2021/11/20 00:08:22;;;;;;;10.02;4.40;;;;;;;;;;5025378;28;20048;-56
2021/11/20 00:10:56;;;;;;;11.25;4.47;;;;;;;;;;5022737;28;20097;-56
2021/11/20 00:13:23;;;;;;;8.75;3.72;;;;;;;;;;5007170;28;20033;-53
2021/11/20 00:15:59;;;;;;;8.05;4.22;;;;;;;;;;5005331;28;20038;-57
2021/11/20 00:18:29;;;;;;;10.55;4.25;;;;;;;;;;5024407;28;20052;-56
2021/11/20 00:20:58;;;;;;;8.55;4.30;;;;;;;;;;5038360;28;20045;-57
2021/11/20 00:23:26;;;;;;;7.80;3.97;;;;;;;;;;5023865;28;20065;-54
2021/11/20 00:25:55;;;;;;;8.82;4.60;;;;;;;;;;5005131;28;20045;-55
2021/11/20 00:28:29;;;;;;;7.72;3.90;;;;;;;;;;5020595;28;20048;-53
2021/11/20 00:30:58;;;;;;;13.00;5.05;;;;;;;;;;5024165;28;20049;-54
2021/11/20 00:33:25;;;;;;;13.15;5.95;;;;;;;;;;5011581;28;20045;-54
2021/11/20 00:35:55;;;;;;;10.70;5.43;;;;;;;;;;5025339;28;20052;-56
2021/11/20 00:38:22;;;;;;;9.25;4.32;;;;;;;;;;5006196;28;20056;-56
2021/11/20 00:40:49;;;;;;;13.88;5.07;;;;;;;;;;5004302;28;20037;-56
2021/11/20 00:43:16;;;;;;;8.15;4.10;;;;;;;;;;5001466;28;20045;-57
2021/11/20 00:45:43;;;;;;;13.10;5.30;;;;;;;;;;5006846;28;20092;-57
2021/11/20 00:48:10;;;;;;;10.50;4.75;;;;;;;;;;5013391;28;20130;-56
2021/11/20 00:50:38;;;;;;;8.48;4.30;;;;;;;;;;5024544;28;20103;-58
2021/11/20 00:53:07;;;;;;;12.67;5.90;;;;;;;;;;5013639;28;20131;-54
2021/11/20 00:55:34;;;;;;;13.10;7.13;;;;;;;;;;5003511;28;20074;-57
2021/11/20 00:58:02;;;;;;;11.07;5.78;;;;;;;;;;5003090;28;20111;-56
2021/11/20 01:00:30;;;;;;;10.95;5.10;;;;;;;;;;5005042;28;20042;-57
2021/11/20 01:02:57;;;;;;;;;;;;;;;;;;5002860;28;20088;-56
2021/11/20 01:05:25;;;;;;;8.70;4.43;;;;;;;;;;5003764;28;19991;-55
2021/11/20 01:07:52;;;;;;;8.38;4.65;;;;;;;;;;5021472;28;20064;-56
2021/11/20 01:10:21;;;;;;;11.05;5.18;;;;;;;;;;5024623;28;20062;-57
2021/11/20 01:12:48;;;;;;;10.10;5.00;;;;;;;;;;5024289;28;20037;-53
2021/11/20 01:15:16;;;;;;;10.85;4.95;;;;;;;;;;5002664;28;20049;-55
2021/11/20 01:17:43;;;;;;;11.90;5.85;;;;;;;;;;5007508;28;20050;-56
2021/11/20 01:20:11;;;;;;;9.82;5.38;;;;;;;;;;5020154;28;20056;-58
2021/11/20 01:22:39;;;;;;;11.13;5.68;;;;;;;;;;5026776;28;20025;-57
2021/11/20 01:25:06;;;;;;;10.85;5.40;;;;;;;;;;5019466;28;20122;-53
2021/11/20 01:27:34;;;;;;;9.27;4.88;;;;;;;;;;5025553;28;20119;-53
2021/11/20 01:30:00;;;;;;;9.40;4.57;;;;;;;;;;5020093;28;20048;-54
2021/11/20 01:32:27;;;;;;;11.80;5.00;;;;;;;;;;5024449;28;20126;-55
2021/11/20 01:34:53;;;;;;;13.02;5.90;;;;;;;;;;5002466;28;20084;-56
2021/11/20 01:37:20;;;;;;;16.48;6.88;;;;;;;;;;5003706;28;20123;-58
2021/11/20 01:39:48;;;;;;;11.13;6.10;;;;;;;;;;5007190;28;20041;-58
2021/11/20 01:42:17;;;;;;;15.25;6.88;;;;;;;;;;5031951;28;20134;-56
2021/11/20 01:44:46;;;;;;;13.10;7.07;;;;;;;;;;5033396;28;20045;-56
2021/11/20 01:47:17;;;;;;;11.88;6.47;;;;;;;;;;5004240;28;20037;-56
2021/11/20 01:49:48;;;;;;;10.70;5.85;;;;;;;;;;5002084;28;20042;-58
2021/11/20 01:52:16;;;;;;;14.07;6.70;;;;;;;;;;5022208;28;20053;-58
2021/11/20 01:54:43;;;;;;;;;;;;;;;;;;5000825;28;20049;-57
2021/11/20 01:57:13;;;;;;;14.25;6.35;;;;;;;;;;5003693;28;19929;-55
2021/11/20 01:59:42;;;;;;;15.75;6.65;;;;;;;;;;5001972;28;20034;-54
2021/11/20 02:02:12;;;;;;;12.30;6.97;;;;;;;;;;5004221;28;20111;-54
2021/11/20 02:04:42;;;;;;;15.27;6.53;;;;;;;;;;5006289;28;20046;-56
2021/11/20 02:07:15;;;;;;;13.05;6.45;;;;;;;;;;5003716;28;20045;-56
2021/11/20 02:09:44;;;;;;;15.57;6.95;;;;;;;;;;5024888;28;20061;-58
2021/11/20 02:12:15;;;;;;;11.63;5.93;;;;;;;;;;5013757;28;20054;-57
2021/11/20 02:14:42;;;;;;;13.25;6.82;;;;;;;;;;5007295;28;20049;-57
2021/11/20 02:17:11;;;;;;;13.88;7.13;;;;;;;;;;5018334;28;20281;-57
2021/11/20 02:19:39;;;;;;;16.65;7.38;;;;;;;;;;5027907;28;20103;-56
2021/11/20 02:22:08;;;;;;;15.15;7.82;;;;;;;;;;5010467;28;20042;-57
2021/11/20 02:24:34;;;;;;;15.40;7.55;;;;;;;;;;5037676;28;20045;-58
2021/11/20 02:27:03;;;;;;;14.95;6.53;;;;;;;;;;5012682;28;20057;-56
2021/11/20 02:29:31;;;;;;;14.88;6.65;;;;;;;;;;5006995;28;20041;-55
2021/11/20 02:32:00;;;;;;;14.35;7.30;;;;;;;;;;5021612;28;20049;-56
2021/11/20 02:34:28;;;;;;;14.43;6.88;;;;;;;;;;5021123;28;20041;-56
2021/11/20 02:36:54;;;;;;;;;;;;;;;;;;5017313;28;20042;-53
2021/11/20 02:39:22;;;;;;;11.07;5.85;;;;;;;;;;5005470;28;19929;-57
2021/11/20 02:41:50;;;;;;;19.45;7.80;;;;;;;;;;5008247;28;20106;-53
2021/11/20 02:44:19;;;;;;;18.65;7.45;;;;;;;;;;5027211;28;20048;-55
2021/11/20 02:46:47;;;;;;;18.48;8.13;;;;;;;;;;5038052;28;20053;-55
2021/11/20 02:49:15;;;;;;;17.83;8.10;;;;;;;;;;5008897;28;20045;-52
2021/11/20 02:51:42;;;;;;;16.40;7.93;;;;;;;;;;5008371;28;20127;-55
2021/11/20 02:54:10;;;;;;;15.80;8.40;;;;;;;;;;5024004;28;20050;-55
2021/11/20 02:56:39;;;;;;;14.52;7.72;;;;;;;;;;5006750;28;20037;-56
2021/11/20 02:59:06;;;;;;;20.42;8.32;;;;;;;;;;5022270;28;20045;-52
2021/11/20 03:01:35;;;;;;;17.00;8.20;;;;;;;;;;5017369;28;20119;-54
2021/11/20 03:04:01;;;;;;;;;;;;;;;;;;5018127;28;20053;-55
2021/11/20 03:06:29;;;;;;;17.17;7.80;;;;;;;;;;5024716;28;19936;-57
2021/11/20 03:08:56;;;;;;;17.80;7.40;;;;;;;;;;5019814;28;20053;-56
2021/11/20 03:11:23;;;;;;;16.38;8.35;;;;;;;;;;5006131;28;20282;-58
2021/11/20 03:13:51;;;;;;;19.02;9.00;;;;;;;;;;5023144;28;20053;-55
2021/11/20 03:16:17;;;;;;;15.52;8.15;;;;;;;;;;5025065;28;20091;-55
2021/11/20 03:18:45;;;;;;;20.42;9.63;;;;;;;;;;5022452;28;20076;-55
2021/11/20 03:21:12;;;;;;;17.55;7.72;;;;;;;;;;5025617;28;20041;-55
2021/11/20 03:23:41;;;;;;;16.50;8.75;;;;;;;;;;5016584;28;20041;-55
2021/11/20 03:26:09;;;;;;;21.30;10.55;;;;;;;;;;5006419;28;20045;-56
2021/11/20 03:28:35;;;;;;;18.23;8.25;;;;;;;;;;5021990;28;20123;-54
2021/11/20 03:31:02;;;;;;;19.08;9.48;;;;;;;;;;5025162;28;20062;-56
2021/11/20 03:33:28;;;;;;;17.10;8.50;;;;;;;;;;5032846;28;20049;-55
2021/11/20 03:35:55;;;;;;;18.65;8.77;;;;;;;;;;5006482;28;20042;-56
2021/11/20 03:38:22;;;;;;;22.77;10.15;;;;;;;;;;4999215;28;20030;-53
2021/11/20 03:40:50;;;;;;;18.98;9.30;;;;;;;;;;5019573;28;20052;-56
2021/11/20 03:43:17;;;;;;;18.42;8.38;;;;;;;;;;5021762;28;20049;-56
2021/11/20 03:45:43;;;;;;;19.13;9.18;;;;;;;;;;5021939;28;20055;-57
2021/11/20 03:48:10;;;;;;;18.05;8.88;;;;;;;;;;5027691;28;20037;-56
2021/11/20 03:50:37;;;;;;;18.85;9.10;;;;;;;;;;5024254;28;20037;-56
2021/11/20 03:53:05;;;;;;;20.92;9.10;;;;;;;;;;5024917;28;20081;-57
2021/11/20 03:55:33;;;;;;;20.50;9.63;;;;;;;;;;5022050;28;20038;-55
2021/11/20 03:58:01;;;;;;;19.80;8.93;;;;;;;;;;5025820;28;20041;-56
2021/11/20 04:00:29;;;;;;;23.37;9.00;;;;;;;;;;5013064;28;20044;-56
2021/11/20 04:02:55;;;;;;;12.50;6.57;;;;;;;;;;5005202;28;20165;-55
2021/11/20 04:05:22;;;;;;;13.93;7.15;;;;;;;;;;5002159;28;20037;-56
2021/11/20 04:07:49;;;;;;;17.77;8.48;;;;;;;;;;5004281;28;20100;-54
2021/11/20 04:10:17;;;;;;;21.40;9.07;;;;;;;;;;5005589;28;20063;-56
2021/11/20 04:12:43;;;;;;;25.77;8.77;;;;;;;;;;5024052;28;20049;-54
2021/11/20 04:15:12;;;;;;;16.85;8.00;;;;;;;;;;5019708;28;20052;-56
2021/11/20 04:17:39;;;;;;;21.10;9.43;;;;;;;;;;5005352;28;20045;-55
2021/11/20 04:20:14;;;;;;;20.80;9.85;;;;;;;;;;5006029;28;20044;-53
2021/11/20 04:22:42;;;;;;;21.17;9.73;;;;;;;;;;5007691;28;20037;-55
2021/11/20 04:25:12;;;;;;;22.63;10.35;;;;;;;;;;5006323;28;20042;-58
2021/11/20 04:27:39;;;;;;;19.65;9.40;;;;;;;;;;5021479;28;20073;-56
2021/11/20 04:30:08;;;;;;;20.60;9.68;;;;;;;;;;5044239;28;20037;-56
2021/11/20 04:32:36;;;;;;;24.05;9.90;;;;;;;;;;5021826;28;20045;-57
2021/11/20 04:35:03;;;;;;;20.03;9.87;;;;;;;;;;5024387;28;20044;-56
2021/11/20 04:37:29;;;;;;;21.50;9.68;;;;;;;;;;5021118;28;20053;-56
2021/11/20 04:39:56;;;;;;;20.67;10.15;;;;;;;;;;5024845;28;20033;-57
2021/11/20 04:42:22;;;;;;;18.35;8.50;;;;;;;;;;5009846;28;20038;-53
2021/11/20 04:44:49;;;;;;;20.23;8.73;;;;;;;;;;5006119;28;20053;-58
2021/11/20 04:47:15;;;;;;;22.20;9.40;;;;;;;;;;5011706;28;20033;-58
2021/11/20 04:49:43;;;;;;;17.80;8.07;;;;;;;;;;5024356;28;20037;-56
2021/11/20 04:52:10;;;;;;;16.33;8.45;;;;;;;;;;5015379;28;20045;-58
2021/11/20 04:54:37;;;;;;;17.92;9.75;;;;;;;;;;5023102;28;20041;-57
2021/11/20 04:57:03;;;;;;;20.27;9.55;;;;;;;;;;5014194;28;20052;-59
2021/11/20 04:59:31;;;;;;;20.33;9.98;;;;;;;;;;5024757;28;20044;-58
2021/11/20 05:01:58;;;;;;;18.77;9.63;;;;;;;;;;5016739;28;20060;-57
2021/11/20 05:04:25;;;;;;;23.48;9.85;;;;;;;;;;5024490;28;20041;-57
2021/11/20 05:06:53;;;;;;;22.70;10.75;;;;;;;;;;5024824;28;20053;-57
2021/11/20 05:09:20;;;;;;;25.10;10.90;;;;;;;;;;5020747;28;20057;-57
2021/11/20 05:11:48;;;;;;;16.15;7.65;;;;;;;;;;5025098;28;20037;-56
2021/11/20 05:14:14;;;;;;;21.95;10.10;;;;;;;;;;5039882;28;20045;-57
2021/11/20 05:16:41;;;;;;;17.75;9.07;;;;;;;;;;5024621;28;20045;-57
2021/11/20 05:19:07;;;;;;;24.48;11.05;;;;;;;;;;5025760;28;20045;-54
2021/11/20 05:21:34;;;;;;;20.73;10.00;;;;;;;;;;5005394;28;20066;-58
2021/11/20 05:24:02;;;;;;;28.17;11.13;;;;;;;;;;5012546;28;20045;-57
2021/11/20 05:26:28;;;;;;;19.13;9.57;;;;;;;;;;5023220;28;20045;-56
2021/11/20 05:29:02;;;;;;;20.98;9.68;;;;;;;;;;5011665;28;20041;-55
2021/11/20 05:31:28;;;;;;;25.08;11.57;;;;;;;;;;5004318;28;20042;-58
2021/11/20 05:33:55;;;;;;;28.42;12.60;;;;;;;;;;5001593;28;20029;-56
2021/11/20 05:36:25;;;;;;;25.60;11.63;;;;;;;;;;5026169;28;20029;-55
2021/11/20 05:38:53;;;;;;;25.90;12.43;;;;;;;;;;5018638;28;20041;-57
2021/11/20 05:41:21;;;;;;;26.43;11.53;;;;;;;;;;5009120;28;20042;-56
2021/11/20 05:43:47;;;;;;;25.73;12.37;;;;;;;;;;5024001;28;20041;-57
2021/11/20 05:46:15;;;;;;;28.73;12.32;;;;;;;;;;5027318;28;20037;-57
2021/11/20 05:48:44;;;;;;;25.60;11.13;;;;;;;;;;5041019;28;20041;-57
2021/11/20 05:51:10;;;;;;;;;;;;;;;;;;5008743;28;20049;-57
2021/11/20 05:53:36;;;;;;;28.83;11.15;;;;;;;;;;5025993;28;19995;-54
2021/11/20 05:56:03;;;;;;;20.40;9.10;;;;;;;;;;5024858;28;20048;-57
2021/11/20 05:58:31;;;;;;;21.88;9.57;;;;;;;;;;5026690;28;20111;-57
2021/11/20 06:01:00;;;;;;;25.13;11.00;;;;;;;;;;5026511;28;20091;-57
2021/11/20 06:03:27;;;;;;;27.75;11.77;;;;;;;;;;5007657;28;20282;-56
2021/11/20 06:05:54;;;;;;;21.67;9.32;;;;;;;;;;5018165;28;20122;-58
2021/11/20 06:08:21;;;;;;;22.38;10.70;;;;;;;;;;5042690;28;20041;-57
2021/11/20 06:10:49;;;;;;;24.02;10.65;;;;;;;;;;5017591;28;20063;-57
2021/11/20 06:13:16;;;;;;;23.65;11.32;;;;;;;;;;5020549;28;20053;-54
2021/11/20 06:15:44;;;;;;;24.92;11.07;;;;;;;;;;5019604;28;20041;-58
2021/11/20 06:18:11;;;;;;;32.30;12.48;;;;;;;;;;5019163;28;20115;-57
2021/11/20 06:20:39;;;;;;;29.83;12.23;;;;;;;;;;5036185;28;20053;-55
2021/11/20 06:23:06;;;;;;;22.38;10.23;;;;;;;;;;5017484;28;20060;-57
2021/11/20 06:25:33;;;;;;;29.73;13.50;;;;;;;;;;5025646;28;20053;-57
2021/11/20 06:27:59;;;;;;;40.92;17.48;;;;;;;;;;5021156;28;20042;-57
2021/11/20 06:30:28;;;;;;;32.92;12.93;;;;;;;;;;5015186;28;20049;-56
2021/11/20 06:32:56;;;;;;;29.92;12.02;;;;;;;;;;5019443;28;20045;-57
2021/11/20 06:35:24;;;;;;;27.55;11.52;;;;;;;;;;5021121;28;20068;-55
2021/11/20 06:37:51;;;;;;;25.58;11.70;;;;;;;;;;5020338;28;20057;-57
2021/11/20 06:40:18;;;;;;;30.85;11.93;;;;;;;;;;5023104;28;20130;-57
2021/11/20 06:42:47;;;;;;;33.17;12.68;;;;;;;;;;5022861;28;20067;-56
2021/11/20 06:45:14;;;;;;;21.20;9.50;;;;;;;;;;5005134;28;20062;-56
2021/11/20 06:47:41;;;;;;;38.42;15.45;;;;;;;;;;5018494;28;20056;-57
2021/11/20 06:50:11;;;;;;;32.78;14.15;;;;;;;;;;5034657;28;20066;-56
2021/11/20 06:52:38;;;;;;;30.70;12.32;;;;;;;;;;5013383;28;20049;-57
2021/11/20 06:55:05;;;;;;;26.42;11.68;;;;;;;;;;5007725;28;20053;-52
2021/11/20 07:00:28;;;;;;;26.55;11.55;;;;;;;;;;5001846;28;20053;-57
2021/11/20 07:02:56;;;;;;;21.90;9.90;;;;;;;;;;5014026;28;20053;-56
2021/11/20 07:05:24;;;;;;;19.55;9.02;;;;;;;;;;5024838;28;20060;-57
2021/11/20 07:07:51;;;;;;;23.20;10.63;;;;;;;;;;5020461;28;20033;-56
2021/11/20 07:10:21;;;;;;;20.50;8.65;;;;;;;;;;5026884;28;20045;-58
2021/11/20 07:12:48;;;;;;;20.35;9.02;;;;;;;;;;5017995;28;20045;-57
2021/11/20 07:15:15;;;;;;;27.23;12.32;;;;;;;;;;5045080;28;20187;-57
2021/11/20 07:17:41;;;;;;;25.67;11.15;;;;;;;;;;5036002;28;20177;-58
2021/11/20 07:20:09;;;;;;;32.00;13.65;;;;;;;;;;5006184;28;20041;-57
2021/11/20 07:22:39;;;;;;;29.63;12.48;;;;;;;;;;5005445;28;20049;-56
2021/11/20 07:25:06;;;;;;;25.52;11.57;;;;;;;;;;5027093;28;20123;-55
2021/11/20 07:27:33;;;;;;;23.60;10.85;;;;;;;;;;5042158;28;20033;-56
2021/11/20 07:29:59;;;;;;;19.77;9.57;;;;;;;;;;5007274;28;20054;-55
2021/11/20 07:32:27;;;;;;;24.75;11.55;;;;;;;;;;5005979;28;20054;-57
2021/11/20 07:34:54;;;;;;;28.27;12.70;;;;;;;;;;5003870;28;20042;-55
2021/11/20 07:37:21;;;;;;;21.00;9.38;;;;;;;;;;5005632;28;20161;-57
2021/11/20 07:39:49;;;;;;;28.88;12.82;;;;;;;;;;5003352;28;20038;-54
2021/11/20 07:42:15;;;;;;;33.53;12.25;;;;;;;;;;4999997;28;20046;-55
2021/11/20 07:44:42;;;;;;;25.13;10.27;;;;;;;;;;4996378;28;20038;-57
2021/11/20 07:47:08;;;;;;;20.40;9.68;;;;;;;;;;5006794;28;20054;-55
2021/11/20 07:49:35;;;;;;;25.52;11.35;;;;;;;;;;4991250;28;20042;-55
2021/11/20 07:52:04;;;;;;;26.30;11.52;;;;;;;;;;4986345;28;20046;-54
2021/11/20 07:54:30;;;;;;;;;;;;;;;;;;4991751;28;20081;-57
2021/11/20 07:56:58;;;;;;;23.60;10.18;;;;;;;;;;5004805;28;19941;-55
2021/11/20 07:59:25;;;;;;;28.73;13.37;;;;;;;;;;4994194;28;20041;-54
2021/11/20 08:01:53;;;;;;;26.67;12.05;;;;;;;;;;4984596;28;20042;-57
2021/11/20 08:04:19;;;;;;;30.77;13.48;;;;;;;;;;4982504;28;20126;-57
2021/11/20 08:06:46;;;;;;;31.33;13.30;;;;;;;;;;4985902;28;20042;-55
2021/11/20 08:09:14;;;;;;;34.05;14.40;;;;;;;;;;4984442;28;20038;-56
2021/11/20 08:11:41;;;;;;;31.67;14.57;;;;;;;;;;5002763;28;20070;-56
2021/11/20 08:14:09;;;;;;;23.67;11.27;;;;;;;;;;4985121;28;20054;-56
2021/11/20 08:16:38;;;;;;;27.98;12.98;;;;;;;;;;5019220;28;20042;-57
2021/11/20 08:19:04;;;;;;;21.33;10.00;;;;;;;;;;5002039;28;20053;-55
2021/11/20 08:21:33;;;;;;;25.65;10.45;;;;;;;;;;5001976;28;20056;-57
2021/11/20 08:23:59;;;;;;;39.25;15.15;;;;;;;;;;4985523;28;20042;-56
2021/11/20 08:26:35;;;;;;;30.98;13.52;;;;;;;;;;5013627;28;20038;-57
2021/11/20 08:29:02;;;;;;;31.05;13.65;;;;;;;;;;5004443;28;20043;-56
2021/11/20 08:31:31;;;;;;;32.50;14.45;;;;;;;;;;4987295;28;20046;-55
2021/11/20 08:33:57;;;;;;;32.38;15.35;;;;;;;;;;4998024;28;20056;-57
2021/11/20 08:36:26;;;;;;;31.38;14.05;;;;;;;;;;5008700;28;20050;-58
2021/11/20 08:38:57;;;;;;;30.20;12.30;;;;;;;;;;5004354;28;20031;-56
2021/11/20 08:41:23;;;;;;;31.83;14.20;;;;;;;;;;4991234;28;20029;-55
2021/11/20 08:43:50;;;;;;;32.70;15.82;;;;;;;;;;5004886;28;20041;-58
2021/11/20 08:46:16;;;;;;;33.17;15.52;;;;;;;;;;5009028;28;20045;-59
2021/11/20 08:48:48;;;;;;;34.30;14.43;;;;;;;;;;5009908;28;20037;-58
2021/11/20 08:51:17;;;;;;;22.98;11.48;;;;;;;;;;4992702;28;20048;-56
2021/11/20 08:53:44;;;;;;;32.78;14.00;;;;;;;;;;5023367;28;20038;-56
2021/11/20 08:56:10;;;;;;;26.45;11.95;;;;;;;;;;5003204;28;20061;-56
2021/11/20 08:58:38;;;;;;;30.83;14.18;;;;;;;;;;5007386;28;20045;-55
2021/11/20 09:01:08;;;;;;;29.73;13.73;;;;;;;;;;5003642;28;20052;-58
2021/11/20 09:03:37;;;;;;;33.67;14.45;;;;;;;;;;5005656;28;20052;-57
2021/11/20 09:06:08;;;;;;;35.03;15.10;;;;;;;;;;5005353;28;20062;-55
2021/11/20 09:08:41;;;;;;;29.25;14.13;;;;;;;;;;5020321;28;20044;-57
2021/11/20 09:11:09;;;;;;;31.67;13.65;;;;;;;;;;5042461;28;20048;-56
2021/11/20 09:13:40;;;;;;;29.80;12.00;;;;;;;;;;5002986;28;20045;-56
2021/11/20 09:16:11;;;;;;;29.05;14.10;;;;;;;;;;5005041;28;20038;-59
2021/11/20 09:18:38;;;;;;;27.95;13.07;;;;;;;;;;5017313;28;20051;-56
2021/11/20 09:21:09;;;;;;;28.73;14.45;;;;;;;;;;5025553;28;20057;-57
2021/11/20 09:23:40;;;;;;;29.30;13.18;;;;;;;;;;5006630;28;20038;-56
2021/11/20 09:26:07;;;;;;;27.58;13.50;;;;;;;;;;4995742;28;20042;-57
2021/11/20 09:28:36;;;;;;;27.58;12.50;;;;;;;;;;5019070;28;20066;-58
2021/11/20 09:31:03;;;;;;;27.02;11.98;;;;;;;;;;4994666;28;20050;-57
2021/11/20 09:33:30;;;;;;;28.93;13.03;;;;;;;;;;5009967;28;20041;-59
2021/11/20 09:35:56;;;;;;;33.45;13.23;;;;;;;;;;5025101;28;20044;-57
2021/11/20 09:38:26;;;;;;;33.28;15.45;;;;;;;;;;5020937;28;20041;-56
2021/11/20 09:40:56;;;;;;;28.60;13.88;;;;;;;;;;5023204;28;20041;-57
2021/11/20 09:43:24;;;;;;;28.25;12.70;;;;;;;;;;5001274;28;20196;-57
2021/11/20 09:45:53;;;;;;;26.20;11.30;;;;;;;;;;4984668;28;20054;-55
2021/11/20 09:48:22;;;;;;;28.38;13.07;;;;;;;;;;5000045;28;20054;-58
2021/11/20 09:50:56;;;;;;;24.70;12.68;;;;;;;;;;5001993;28;20119;-57
2021/11/20 09:53:23;;;;;;;27.52;12.85;;;;;;;;;;4997794;28;20042;-56
2021/11/20 09:55:52;;;;;;;24.02;11.25;;;;;;;;;;4993724;28;20037;-57
2021/11/20 09:58:20;;;;;;;31.20;14.70;;;;;;;;;;5001793;28;20041;-57
2021/11/20 10:01:12;;;;;;;28.92;13.15;;;;;;;;;;4998775;28;20042;-57
2021/11/20 10:03:42;;;;;;;24.35;11.18;;;;;;;;;;4980427;28;20060;-56
2021/11/20 10:06:09;;;;;;;32.70;13.85;;;;;;;;;;4983873;28;20055;-58
2021/11/20 10:08:39;;;;;;;26.98;12.00;;;;;;;;;;4984919;28;20038;-58
2021/11/20 10:11:22;;;;;;;31.27;14.52;;;;;;;;;;4999293;28;20066;-56
2021/11/20 10:13:50;;;;;;;35.50;15.90;;;;;;;;;;4983112;28;20034;-58
2021/11/20 10:16:21;;;;;;;33.17;15.05;;;;;;;;;;4982301;28;20046;-57
2021/11/20 10:18:51;;;;;;;35.40;15.82;;;;;;;;;;4998974;28;20077;-57
2021/11/20 10:21:19;;;;;;;37.13;17.33;;;;;;;;;;5000219;28;20046;-57
2021/11/20 10:23:48;;;;;;;38.28;16.45;;;;;;;;;;4986208;28;20038;-56
2021/11/20 10:26:14;;;;;;;;;;;;;;;;;;4985916;28;20054;-55
2021/11/20 10:28:59;;;;;;;32.78;14.90;;;;;;;;;;4978160;28;19938;-57
2021/11/20 10:31:27;;;;;;;35.90;16.13;;;;;;;;;;4977110;28;20042;-56
2021/11/20 10:33:58;;;;;;;38.10;16.30;;;;;;;;;;4997450;28;20082;-58
2021/11/20 10:36:31;;;;;;;31.83;15.48;;;;;;;;;;4992556;28;20047;-57
2021/11/20 10:39:07;;;;;;;36.40;15.25;;;;;;;;;;5023503;28;20037;-58
2021/11/20 10:41:36;;;;;;;33.67;15.02;;;;;;;;;;4990737;28;20042;-58
2021/11/20 10:44:15;;;;;;;34.42;15.80;;;;;;;;;;4985791;28;20046;-58
2021/11/20 10:47:02;;;;;;;31.40;14.38;;;;;;;;;;4996163;28;20092;-58
2021/11/20 10:49:37;;;;;;;34.60;15.40;;;;;;;;;;4998759;28;20042;-58
2021/11/20 10:52:06;;;;;;;33.38;14.60;;;;;;;;;;5007453;28;20038;-58
2021/11/20 10:54:32;;;;;;;;;;;;;;;;;;5024324;28;20053;-58
2021/11/20 10:57:02;;;;;;;29.10;12.00;;;;;;;;;;5008755;28;19921;-58
2021/11/20 10:59:41;;;;;;;36.58;15.25;;;;;;;;;;4996669;28;20050;-53
2021/11/20 11:02:29;;;;;;;30.05;13.80;;;;;;;;;;5006223;28;20065;-57
2021/11/20 11:05:03;;;;;;;35.88;17.02;;;;;;;;;;5017649;28;20108;-58
2021/11/20 11:07:31;;;;;;;29.45;13.93;;;;;;;;;;4989771;28;20034;-58
2021/11/20 11:09:58;;;;;;;;;;;;;;;;;;4988144;28;20034;-57
2021/11/20 11:12:31;;;;;;;32.30;14.07;;;;;;;;;;4991776;28;19925;-56
2021/11/20 11:15:11;;;;;;;34.80;14.15;;;;;;;;;;5024127;28;20140;-57
2021/11/20 11:17:48;;;;;;;39.13;16.17;;;;;;;;;;4991002;28;20034;-59
2021/11/20 11:20:20;;;;;;;31.30;14.82;;;;;;;;;;4987806;28;20049;-57
2021/11/20 11:22:49;;;;;;;35.08;15.68;;;;;;;;;;4989432;28;20131;-59
2021/11/20 11:25:19;;;;;;;32.83;15.18;;;;;;;;;;5005292;28;20058;-57
2021/11/20 11:28:02;;;;;;;27.10;11.93;;;;;;;;;;4994579;28;20104;-56
2021/11/20 11:30:31;;;;;;;38.30;15.40;;;;;;;;;;5003080;28;20065;-58
2021/11/20 11:32:58;;;;;;;32.33;14.20;;;;;;;;;;4986143;28;20045;-58
2021/11/20 11:35:27;;;;;;;35.45;15.80;;;;;;;;;;5006460;28;20041;-55
2021/11/20 11:38:05;;;;;;;33.53;14.82;;;;;;;;;;4996525;28;20035;-58
2021/11/20 11:40:35;;;;;;;36.08;15.80;;;;;;;;;;4987081;28;20062;-58
2021/11/20 11:43:03;;;;;;;34.53;15.35;;;;;;;;;;4995403;28;20033;-59
2021/11/20 11:45:39;;;;;;;36.70;16.80;;;;;;;;;;5005339;28;20052;-59
2021/11/20 11:48:14;;;;;;;35.78;15.95;;;;;;;;;;5003386;28;20041;-55
2021/11/20 11:50:48;;;;;;;38.25;16.70;;;;;;;;;;5006614;28;20053;-57
2021/11/20 11:53:36;;;;;;;36.72;16.58;;;;;;;;;;5007185;28;20043;-58
2021/11/20 11:56:03;;;;;;;27.98;13.30;;;;;;;;;;5023607;28;20134;-58
2021/11/20 11:58:47;;;;;;;34.33;15.15;;;;;;;;;;5020945;28;20049;-58
2021/11/20 12:01:16;;;;;;;34.47;15.52;;;;;;;;;;5026910;28;20045;-59
2021/11/20 12:03:43;;;;;;;33.22;15.07;;;;;;;;;;5022804;28;20037;-56
2021/11/20 12:06:16;;;;;;;32.30;14.38;;;;;;;;;;5025308;28;20076;-57
2021/11/20 12:08:45;;;;;;;34.85;14.73;;;;;;;;;;5019193;28;20057;-55
2021/11/20 12:11:13;;;;;;;32.85;14.45;;;;;;;;;;5024036;28;20045;-57
2021/11/20 12:13:40;;;;;;;39.40;16.23;;;;;;;;;;5021027;28;20074;-53
2021/11/20 12:16:22;;;;;;;61.95;16.27;;;;;;;;;;5004154;28;20038;-54
2021/11/20 12:18:55;;;;;;;34.85;15.00;;;;;;;;;;5002085;28;20037;-58
2021/11/20 12:21:26;;;;;;;30.38;14.70;;;;;;;;;;5005894;28;20048;-55
2021/11/20 12:23:55;;;;;;;33.58;14.38;;;;;;;;;;5005563;28;20045;-57
2021/11/20 12:26:21;;;;;;;;;;;;;;;;;;5020664;28;20045;-54
2021/11/20 12:29:12;;;;;;;27.33;12.35;;;;;;;;;;5024226;28;19929;-55
2021/11/20 12:31:48;;;;;;;32.13;13.38;;;;;;;;;;5007839;28;20041;-54
2021/11/20 12:34:21;;;;;;;29.85;13.65;;;;;;;;;;5023924;28;20045;-56
2021/11/20 12:36:54;;;;;;;33.38;13.20;;;;;;;;;;5022716;28;20038;-56
2021/11/20 12:39:41;;;;;;;29.90;12.52;;;;;;;;;;5023976;28;20037;-56
2021/11/20 12:42:15;;;;;;;27.90;12.75;;;;;;;;;;5004392;28;20033;-56
2021/11/20 12:44:50;;;;;;;81.93;13.95;;;;;;;;;;5005422;28;20046;-57
2021/11/20 12:47:34;;;;;;;32.15;13.50;;;;;;;;;;5020387;28;20060;-55
2021/11/20 12:50:05;;;;;;;27.48;12.65;;;;;;;;;;4989203;28;20074;-55
2021/11/20 12:52:33;;;;;;;35.38;13.13;;;;;;;;;;5018891;28;20061;-56
2021/11/20 12:55:03;;;;;;;28.90;12.27;;;;;;;;;;5026178;28;20044;-56
2021/11/20 12:57:38;;;;;;;26.77;12.60;;;;;;;;;;5021579;28;20053;-58
2021/11/20 13:00:19;;;;;;;29.73;13.13;;;;;;;;;;5021257;28;20041;-56
2021/11/20 13:02:48;;;;;;;27.83;11.65;;;;;;;;;;5002249;28;20060;-57
2021/11/20 13:05:21;;;;;;;27.73;12.68;;;;;;;;;;5005749;28;20046;-55
2021/11/20 13:07:49;;;;;;;30.17;12.07;;;;;;;;;;5018973;28;20037;-54
2021/11/20 13:10:22;;;;;;;28.67;11.98;;;;;;;;;;5024750;28;20053;-55
2021/11/20 13:12:50;;;;;;;30.50;12.40;;;;;;;;;;5015744;28;20030;-57
2021/11/20 13:15:35;;;;;;;27.48;11.52;;;;;;;;;;5024945;28;20049;-56
2021/11/20 13:18:12;;;;;;;25.05;10.25;;;;;;;;;;5020441;28;20041;-54
2021/11/20 13:20:42;;;;;;;25.58;11.25;;;;;;;;;;5024525;28;20037;-56
2021/11/20 13:23:10;;;;;;;25.85;12.25;;;;;;;;;;5019455;28;20199;-56
2021/11/20 13:25:49;;;;;;;24.90;10.80;;;;;;;;;;5025106;28;20045;-58
2021/11/20 13:28:17;;;;;;;22.70;9.90;;;;;;;;;;5005072;28;20049;-58
2021/11/20 13:30:44;;;;;;;25.05;10.35;;;;;;;;;;5006920;28;20038;-58
2021/11/20 13:33:11;;;;;;;23.80;11.03;;;;;;;;;;5003289;28;20034;-58
2021/11/20 13:35:38;;;;;;;25.48;11.32;;;;;;;;;;5004634;28;20045;-55
2021/11/20 13:38:06;;;;;;;25.50;9.75;;;;;;;;;;5001075;28;20044;-56
2021/11/20 13:40:34;;;;;;;28.23;11.18;;;;;;;;;;5019352;28;20052;-56
2021/11/20 13:43:01;;;;;;;;;;;;;;;;;;4988988;28;20038;-56
2021/11/20 13:45:30;;;;;;;23.73;10.00;;;;;;;;;;4984037;28;19968;-56
2021/11/20 13:47:57;;;;;;;27.77;11.07;;;;;;;;;;4982581;28;20074;-58
2021/11/20 13:50:35;;;;;;;27.23;11.38;;;;;;;;;;5004508;28;20104;-57
2021/11/20 13:53:02;;;;;;;;;;;;;;;;;;4995562;28;20058;-55
2021/11/20 13:55:28;;;;;;;25.77;11.23;;;;;;;;;;5002877;28;19932;-58
2021/11/20 13:57:55;;;;;;;29.38;13.05;;;;;;;;;;4999787;28;20046;-57
2021/11/20 14:00:23;;;;;;;28.38;12.10;;;;;;;;;;5025127;28;20042;-58
2021/11/20 14:02:52;;;;;;;32.25;13.63;;;;;;;;;;5004525;28;20053;-58
2021/11/20 14:05:20;;;;;;;30.27;12.30;;;;;;;;;;5003811;28;20045;-58
2021/11/20 14:07:47;;;;;;;27.85;11.60;;;;;;;;;;5005531;28;20057;-58
2021/11/20 14:10:29;;;;;;;31.48;12.65;;;;;;;;;;5003131;28;20045;-54
2021/11/20 14:13:02;;;;;;;32.92;13.30;;;;;;;;;;5004359;28;20037;-57
2021/11/20 14:15:28;;;;;;;26.58;11.27;;;;;;;;;;5020279;28;20049;-59
2021/11/20 14:18:02;;;;;;;28.13;11.95;;;;;;;;;;5006483;28;20049;-57
2021/11/20 14:20:29;;;;;;;35.10;13.05;;;;;;;;;;4998243;28;20061;-57
2021/11/20 14:22:55;;;;;;;34.10;13.60;;;;;;;;;;5006421;28;20034;-54
2021/11/20 14:25:22;;;;;;;30.15;12.23;;;;;;;;;;5001608;28;20042;-56
2021/11/20 14:27:56;;;;;;;31.45;12.15;;;;;;;;;;5008408;28;20034;-56
2021/11/20 14:30:23;;;;;;;26.00;11.95;;;;;;;;;;5000269;28;20046;-56
2021/11/20 14:32:50;;;;;;;25.40;10.85;;;;;;;;;;5005892;28;20046;-58
2021/11/20 14:35:18;;;;;;;24.85;11.45;;;;;;;;;;4999598;28;20060;-57
2021/11/20 14:37:44;;;;;;;31.30;13.05;;;;;;;;;;5004630;28;20046;-57
2021/11/20 14:40:13;;;;;;;29.30;12.05;;;;;;;;;;5000426;28;20049;-56